createdAt,value
2019-03-20T00:02:50.464Z,5.43
2019-03-20T00:05:54.905Z,4.97
2019-03-20T00:08:59.338Z,5.63
2019-03-20T00:12:03.774Z,5.60
2019-03-20T00:15:17.603Z,5.53
2019-03-20T00:18:22.043Z,6.30
2019-03-20T00:21:26.855Z,5.27
2019-03-20T00:24:31.285Z,5.67
2019-03-20T00:27:35.729Z,5.97
2019-03-20T00:30:40.432Z,5.00
2019-03-20T00:33:45.165Z,5.13
2019-03-20T00:36:50.005Z,6.03
2019-03-20T00:39:54.433Z,5.13
2019-03-20T00:42:59.150Z,5.03
2019-03-20T00:46:03.599Z,6.10
2019-03-20T00:49:08.023Z,4.87
2019-03-20T00:52:12.464Z,5.27
2019-03-20T00:55:18.445Z,5.27
2019-03-20T00:58:23.214Z,5.33
2019-03-20T01:01:27.946Z,4.97
2019-03-20T01:04:32.370Z,4.93
2019-03-20T01:07:36.812Z,5.40
2019-03-20T01:10:41.626Z,4.90
2019-03-20T01:13:47.382Z,4.97
2019-03-20T01:16:52.115Z,4.83
2019-03-20T01:19:56.840Z,4.97
2019-03-20T01:23:01.285Z,4.97
2019-03-20T01:26:05.995Z,5.10
2019-03-20T01:29:10.723Z,5.67
2019-03-20T01:32:15.462Z,4.90
2019-03-20T01:35:24.043Z,6.03
2019-03-20T01:38:26.363Z,5.73
2019-03-20T01:41:37.890Z,5.07
2019-03-20T01:44:36.962Z,5.10
2019-03-20T01:47:41.399Z,4.73
2019-03-20T01:50:46.096Z,5.23
2019-03-20T01:53:50.709Z,4.90
2019-03-20T01:56:55.455Z,5.47
2019-03-20T01:59:59.886Z,4.93
2019-03-20T02:03:04.692Z,5.03
2019-03-20T02:06:09.448Z,5.47
2019-03-20T02:09:13.890Z,4.93
2019-03-20T02:12:18.594Z,4.00
2019-03-20T02:15:23.020Z,4.67
2019-03-20T02:18:27.457Z,4.90
2019-03-20T02:21:31.887Z,4.30
2019-03-20T02:24:36.597Z,4.70
2019-03-20T02:27:41.195Z,4.57
2019-03-20T02:30:45.958Z,4.17
2019-03-20T02:33:50.686Z,4.83
2019-03-20T02:36:55.442Z,3.93
2019-03-20T02:40:00.505Z,4.60
2019-03-20T02:43:05.139Z,4.80
2019-03-20T02:46:09.558Z,4.67
2019-03-20T02:49:14.063Z,4.90
2019-03-20T02:52:18.514Z,4.90
2019-03-20T02:55:23.182Z,4.73
2019-03-20T02:58:28.025Z,5.20
2019-03-20T03:01:32.458Z,5.50
2019-03-20T03:04:36.893Z,5.53
2019-03-20T03:07:41.395Z,6.07
2019-03-20T03:10:45.824Z,6.13
2019-03-20T03:13:50.547Z,5.63
2019-03-20T03:16:54.977Z,6.27
2019-03-20T03:19:59.409Z,6.17
2019-03-20T03:23:04.537Z,6.07
2019-03-20T03:26:08.970Z,6.47
2019-03-20T03:29:13.408Z,6.67
2019-03-20T03:32:18.223Z,6.47
2019-03-20T03:35:23.569Z,6.57
2019-03-20T03:38:28.297Z,6.53
2019-03-20T03:41:33.042Z,5.97
2019-03-20T03:44:38.278Z,5.90
2019-03-20T03:47:43.329Z,6.20
2019-03-20T03:50:48.552Z,6.33
2019-03-20T03:53:53.144Z,6.10
2019-03-20T03:56:57.579Z,6.27
2019-03-20T04:00:02.330Z,6.33
2019-03-20T04:03:07.057Z,6.10
2019-03-20T04:06:11.790Z,6.30
2019-03-20T04:09:16.234Z,5.90
2019-03-20T04:12:20.946Z,6.17
2019-03-20T04:15:25.388Z,5.97
2019-03-20T04:18:29.828Z,5.50
2019-03-20T04:21:34.277Z,5.30
2019-03-20T04:24:38.715Z,6.60
2019-03-20T04:27:43.155Z,5.20
2019-03-20T04:30:47.588Z,5.43
2019-03-20T04:33:52.257Z,4.73
2019-03-20T04:36:56.686Z,6.73
2019-03-20T04:40:01.132Z,7.70
2019-03-20T04:43:05.699Z,5.53
2019-03-20T04:46:10.371Z,4.77
2019-03-20T04:49:14.810Z,5.53
2019-03-20T04:52:19.247Z,6.27
2019-03-20T04:55:23.678Z,5.33
2019-03-20T04:58:28.117Z,4.87
2019-03-20T05:01:32.847Z,5.77
2019-03-20T05:04:37.292Z,5.33
2019-03-20T05:07:41.739Z,5.20
2019-03-20T05:10:46.424Z,5.33
2019-03-20T05:13:50.855Z,4.70
2019-03-20T05:16:55.294Z,5.27
2019-03-20T05:19:59.732Z,6.03
2019-03-20T05:23:04.158Z,5.57
2019-03-20T05:26:08.596Z,5.33
2019-03-20T05:29:13.279Z,5.53
2019-03-20T05:32:19.628Z,5.37
2019-03-20T05:35:24.172Z,5.33
2019-03-20T05:38:28.598Z,5.13
2019-03-20T05:41:33.046Z,5.17
2019-03-20T05:44:37.474Z,5.87
2019-03-20T05:47:41.912Z,4.87
2019-03-20T05:50:46.600Z,5.37
2019-03-20T05:53:51.031Z,5.33
2019-03-20T05:56:55.468Z,6.43
2019-03-20T05:59:59.893Z,6.07
2019-03-20T06:03:04.399Z,4.97
2019-03-20T06:06:09.128Z,5.83
2019-03-20T06:09:13.584Z,8.93
2019-03-20T06:12:18.278Z,6.47
2019-03-20T06:15:24.600Z,6.63
2019-03-20T06:18:29.220Z,5.73
2019-03-20T06:21:33.665Z,6.20
2019-03-20T06:24:38.439Z,7.07
2019-03-20T06:27:42.879Z,6.13
2019-03-20T06:30:47.313Z,6.10
2019-03-20T06:33:52.018Z,6.80
2019-03-20T06:36:56.450Z,6.97
2019-03-20T06:40:00.879Z,6.43
2019-03-20T06:43:05.317Z,7.70
2019-03-20T06:46:10.011Z,6.80
2019-03-20T06:49:14.445Z,7.57
2019-03-20T06:52:18.901Z,6.50
2019-03-20T06:55:23.583Z,7.03
2019-03-20T06:58:28.037Z,7.07
2019-03-20T07:01:32.534Z,7.40
2019-03-20T07:05:12.825Z,7.53
2019-03-20T07:08:19.770Z,7.12
2019-03-20T07:11:22.645Z,8.48
2019-03-20T07:14:27.106Z,6.85
2019-03-20T07:17:31.556Z,7.62
2019-03-20T07:20:37.634Z,7.90
2019-03-20T07:23:42.090Z,7.80
2019-03-20T07:26:47.965Z,8.33
2019-03-20T07:29:52.401Z,7.87
2019-03-20T07:32:56.871Z,8.10
2019-03-20T07:36:01.265Z,8.47
2019-03-20T07:39:10.122Z,8.10
2019-03-20T07:42:14.549Z,8.63
2019-03-20T07:45:18.980Z,10.80
2019-03-20T07:48:23.423Z,10.30
2019-03-20T07:51:27.848Z,9.50
2019-03-20T07:54:32.296Z,9.50
2019-03-20T07:57:36.730Z,8.80
2019-03-20T08:00:41.162Z,11.20
2019-03-20T08:03:45.962Z,9.97
2019-03-20T08:06:50.693Z,10.10
2019-03-20T08:09:55.525Z,10.17
2019-03-20T08:13:00.360Z,9.40
2019-03-20T08:16:04.788Z,9.63
2019-03-20T08:19:09.229Z,9.40
2019-03-20T08:22:13.934Z,9.07
2019-03-20T08:25:18.357Z,9.13
2019-03-20T08:28:23.040Z,8.77
2019-03-20T08:31:27.462Z,7.70
2019-03-20T08:34:33.578Z,10.50
2019-03-20T08:37:38.026Z,7.53
2019-03-20T08:40:42.507Z,7.17
2019-03-20T08:43:47.303Z,7.30
2019-03-20T08:46:51.756Z,7.33
2019-03-20T08:49:56.231Z,5.63
2019-03-20T08:53:00.650Z,6.93
2019-03-20T08:56:05.152Z,7.03
2019-03-20T08:59:09.921Z,5.00
2019-03-20T09:02:14.647Z,5.53
2019-03-20T09:05:19.144Z,6.17
2019-03-20T09:08:29.308Z,5.70
2019-03-20T09:11:29.784Z,5.23
2019-03-20T09:14:34.598Z,4.27
2019-03-20T09:17:39.064Z,5.03
2019-03-20T09:20:43.927Z,5.80
2019-03-20T09:23:48.655Z,4.80
2019-03-20T09:26:53.098Z,5.10
2019-03-20T09:29:57.542Z,6.90
2019-03-20T09:33:01.986Z,4.40
2019-03-20T09:36:06.760Z,3.10
2019-03-20T09:39:11.207Z,3.63
2019-03-20T09:42:15.645Z,2.93
2019-03-20T09:45:21.800Z,3.20
2019-03-20T09:48:26.247Z,3.37
2019-03-20T09:51:30.677Z,4.30
2019-03-20T09:54:35.450Z,3.47
2019-03-20T09:57:40.183Z,3.67
2019-03-20T10:00:44.621Z,3.43
2019-03-20T10:03:49.065Z,2.50
2019-03-20T10:06:53.864Z,2.40
2019-03-20T10:09:58.306Z,2.93
2019-03-20T10:13:02.791Z,3.20
2019-03-20T10:16:07.290Z,2.67
2019-03-20T10:19:11.805Z,2.80
2019-03-20T10:22:16.494Z,2.50
2019-03-20T10:25:20.947Z,1.40
2019-03-20T10:28:25.639Z,3.00
2019-03-20T10:31:30.097Z,2.40
2019-03-20T10:34:39.413Z,2.90
2019-03-20T10:37:41.106Z,2.97
2019-03-20T10:40:45.939Z,3.70
2019-03-20T10:43:52.367Z,2.63
2019-03-20T10:46:57.031Z,3.27
2019-03-20T10:50:01.879Z,2.57
2019-03-20T10:53:06.358Z,2.67
2019-03-20T10:56:10.836Z,2.93
2019-03-20T10:59:15.679Z,2.70
2019-03-20T11:02:20.483Z,2.30
2019-03-20T11:05:24.967Z,2.57
2019-03-20T11:08:29.446Z,2.70
2019-03-20T11:11:33.923Z,2.40
2019-03-20T11:14:38.689Z,3.90
2019-03-20T11:17:43.540Z,2.53
2019-03-20T11:20:48.006Z,2.57
2019-03-20T11:23:52.482Z,2.87
2019-03-20T11:26:56.967Z,2.73
2019-03-20T11:30:01.735Z,2.73
2019-03-20T11:33:06.282Z,3.17
2019-03-20T11:36:11.090Z,4.53
2019-03-20T11:39:15.641Z,2.70
2019-03-20T11:42:20.449Z,3.00
2019-03-20T11:45:25.282Z,2.60
2019-03-20T11:48:29.765Z,2.77
2019-03-20T11:51:34.249Z,2.73
2019-03-20T11:54:38.737Z,2.60
2019-03-20T11:57:43.209Z,2.50
2019-03-20T12:00:48.011Z,2.77
2019-03-20T12:03:52.950Z,2.50
2019-03-20T12:06:57.516Z,2.57
2019-03-20T12:10:01.997Z,2.80
2019-03-20T12:13:06.552Z,2.40
2019-03-20T12:16:11.029Z,2.70
2019-03-20T12:19:15.783Z,2.53
2019-03-20T12:22:20.617Z,3.00
2019-03-20T12:25:36.363Z,2.63
2019-03-20T12:28:41.139Z,2.50
2019-03-20T12:31:45.970Z,2.33
2019-03-20T12:34:50.450Z,2.40
2019-03-20T12:37:54.935Z,2.60
2019-03-20T12:40:59.758Z,2.80
2019-03-20T12:44:04.595Z,2.70
2019-03-20T12:47:09.076Z,2.37
2019-03-20T12:50:14.563Z,2.30
2019-03-20T12:53:32.155Z,2.30
2019-03-20T12:56:36.633Z,1.90
2019-03-20T12:59:41.117Z,2.53
2019-03-20T13:02:45.871Z,2.33
2019-03-20T13:05:50.346Z,2.10
2019-03-20T13:08:55.131Z,2.60
2019-03-20T13:11:59.962Z,1.83
2019-03-20T13:15:06.920Z,2.00
2019-03-20T13:18:11.393Z,2.30
2019-03-20T13:21:16.207Z,2.63
2019-03-20T13:24:20.671Z,2.70
2019-03-20T13:27:25.157Z,2.27
2019-03-20T13:30:42.823Z,2.20
2019-03-20T13:33:49.212Z,1.70
2019-03-20T13:36:53.779Z,2.20
2019-03-20T13:39:58.625Z,1.70
2019-03-20T13:43:03.098Z,1.93
2019-03-20T13:46:07.875Z,1.97
2019-03-20T13:49:12.703Z,1.80
2019-03-20T13:52:17.188Z,2.20
2019-03-20T13:55:21.658Z,1.87
2019-03-20T13:58:26.491Z,2.20
2019-03-20T14:01:31.319Z,2.20
2019-03-20T14:04:36.156Z,2.30
2019-03-20T14:07:40.707Z,2.00
2019-03-20T14:10:50.436Z,2.33
2019-03-20T14:13:51.402Z,2.47
2019-03-20T14:16:56.208Z,2.53
2019-03-20T14:20:00.677Z,2.10
2019-03-20T14:23:05.173Z,2.40
2019-03-20T14:26:09.655Z,2.20
2019-03-20T14:29:14.130Z,2.53
2019-03-20T14:32:18.878Z,2.83
2019-03-20T14:35:23.671Z,2.13
2019-03-20T14:38:28.157Z,2.87
2019-03-20T14:41:32.926Z,1.97
2019-03-20T14:44:37.408Z,2.50
2019-03-20T14:47:42.466Z,2.20
2019-03-20T14:50:47.626Z,3.03
2019-03-20T14:53:52.111Z,2.20
2019-03-20T14:56:56.905Z,2.50
2019-03-20T15:00:01.377Z,2.43
2019-03-20T15:03:06.152Z,2.60
2019-03-20T15:06:10.977Z,2.30
2019-03-20T15:09:15.461Z,2.67
2019-03-20T15:12:19.994Z,3.93
2019-03-20T15:15:31.268Z,2.57
2019-03-20T15:18:36.038Z,2.47
2019-03-20T15:21:40.881Z,2.60
2019-03-20T15:24:45.353Z,3.63
2019-03-20T15:27:49.903Z,2.40
2019-03-20T15:30:54.770Z,2.73
2019-03-20T15:33:59.259Z,2.20
2019-03-20T15:37:03.738Z,3.77
2019-03-20T15:40:15.227Z,2.47
2019-03-20T15:43:19.713Z,2.50
2019-03-20T15:46:24.462Z,2.40
2019-03-20T15:49:29.286Z,2.80
2019-03-20T15:52:33.769Z,3.00
2019-03-20T15:55:41.932Z,2.73
2019-03-20T15:58:46.756Z,2.77
2019-03-20T16:01:51.227Z,2.70
2019-03-20T16:04:56.014Z,3.20
2019-03-20T16:08:00.497Z,2.33
2019-03-20T16:11:06.818Z,2.43
2019-03-20T16:14:11.636Z,2.70
2019-03-20T16:17:16.124Z,2.50
2019-03-20T16:20:20.600Z,2.37
2019-03-20T16:23:25.091Z,2.43
2019-03-20T16:26:29.576Z,2.43
2019-03-20T16:29:34.300Z,2.60
2019-03-20T16:32:39.125Z,2.37
2019-03-20T16:35:43.839Z,2.50
2019-03-20T16:38:48.575Z,2.63
2019-03-20T16:41:53.058Z,2.43
2019-03-20T16:44:58.751Z,2.63
2019-03-20T16:48:03.234Z,2.37
2019-03-20T16:51:07.743Z,2.67
2019-03-20T16:54:12.523Z,2.20
2019-03-20T16:57:17.399Z,2.60
2019-03-20T17:00:29.783Z,2.67
2019-03-20T17:03:34.604Z,2.43
2019-03-20T17:06:39.437Z,2.30
2019-03-20T17:09:44.266Z,2.20
2019-03-20T17:12:49.101Z,1.90
2019-03-20T17:15:53.585Z,2.23
2019-03-20T17:18:58.072Z,2.97
2019-03-20T17:22:02.590Z,2.53
2019-03-20T17:25:10.739Z,2.10
2019-03-20T17:28:15.225Z,3.30
2019-03-20T17:31:20.046Z,2.33
2019-03-20T17:34:24.880Z,2.30
2019-03-20T17:37:29.357Z,2.10
2019-03-20T17:40:33.839Z,3.43
2019-03-20T17:43:38.665Z,2.33
2019-03-20T17:46:43.500Z,2.23
2019-03-20T17:49:48.330Z,2.30
2019-03-20T17:52:52.827Z,2.53
2019-03-20T17:55:57.307Z,2.67
2019-03-20T17:59:02.218Z,2.17
2019-03-20T18:02:06.689Z,3.00
2019-03-20T18:05:11.237Z,2.30
2019-03-20T18:08:15.716Z,2.80
2019-03-20T18:11:20.191Z,2.93
2019-03-20T18:14:24.953Z,2.20
2019-03-20T18:17:29.772Z,2.87
2019-03-20T18:20:34.614Z,2.70
2019-03-20T18:23:39.447Z,2.70
2019-03-20T18:26:43.955Z,2.50
2019-03-20T18:29:48.460Z,2.80
2019-03-20T18:32:53.325Z,2.90
2019-03-20T18:35:58.157Z,3.17
2019-03-20T18:39:02.887Z,3.83
2019-03-20T18:42:09.517Z,2.87
2019-03-20T18:45:22.314Z,3.27
2019-03-20T18:48:26.979Z,3.03
2019-03-20T18:51:31.650Z,2.70
2019-03-20T18:54:36.135Z,3.50
2019-03-20T18:57:40.871Z,2.77
2019-03-20T19:00:45.317Z,3.20
2019-03-20T19:03:50.018Z,3.27
2019-03-20T19:06:54.469Z,2.87
2019-03-20T19:09:58.981Z,2.90
2019-03-20T19:13:03.423Z,3.57
2019-03-20T19:16:07.931Z,3.97
2019-03-20T19:19:12.363Z,3.57
2019-03-20T19:22:17.082Z,3.90
2019-03-20T19:25:21.515Z,3.30
2019-03-20T19:28:25.942Z,3.70
2019-03-20T19:31:30.758Z,3.70
2019-03-20T19:34:35.493Z,3.60
2019-03-20T19:37:39.911Z,3.30
2019-03-20T19:40:44.341Z,3.10
2019-03-20T19:43:48.767Z,3.97
2019-03-20T19:46:53.483Z,3.50
2019-03-20T19:49:57.922Z,3.53
2019-03-20T19:53:02.364Z,3.77
2019-03-20T19:56:06.822Z,3.70
2019-03-20T19:59:11.588Z,3.97
2019-03-20T20:02:16.020Z,3.37
2019-03-20T20:05:20.461Z,3.60
2019-03-20T20:08:25.171Z,3.80
2019-03-20T20:11:29.604Z,3.93
2019-03-20T20:14:34.028Z,3.40
2019-03-20T20:17:38.467Z,3.90
2019-03-20T20:20:42.910Z,3.67
2019-03-20T20:23:47.340Z,3.83
2019-03-20T20:26:51.780Z,4.20
2019-03-20T20:29:56.207Z,4.67
2019-03-20T20:33:00.648Z,4.53
2019-03-20T20:36:05.086Z,4.30
2019-03-20T20:39:09.520Z,4.83
2019-03-20T20:42:14.230Z,4.43
2019-03-20T20:45:18.727Z,4.90
2019-03-20T20:48:23.220Z,5.30
2019-03-20T20:51:27.604Z,5.07
2019-03-20T20:54:32.076Z,4.70
2019-03-20T20:57:36.518Z,5.13
2019-03-20T21:00:40.946Z,5.37
2019-03-20T21:03:45.724Z,5.50
2019-03-20T21:06:50.151Z,5.63
2019-03-20T21:09:54.584Z,5.30
2019-03-20T21:12:59.047Z,5.00
2019-03-20T21:16:03.563Z,5.10
2019-03-20T21:19:36.049Z,4.77
2019-03-20T21:23:20.418Z,4.73
2019-03-20T21:26:44.076Z,5.30
2019-03-20T21:30:18.811Z,5.60
2019-03-20T21:33:55.899Z,4.77
2019-03-20T21:37:07.870Z,5.13
2019-03-20T21:40:14.805Z,4.20
2019-03-20T21:43:57.196Z,4.97
2019-03-20T21:47:35.364Z,4.47
2019-03-20T21:51:02.191Z,3.70
2019-03-20T21:54:17.491Z,4.30
2019-03-20T21:57:35.130Z,4.07
2019-03-20T22:01:23.785Z,4.00
2019-03-20T22:04:28.225Z,4.50
2019-03-20T22:07:32.944Z,4.73
2019-03-20T22:11:01.836Z,5.13
2019-03-20T22:14:12.820Z,4.83
2019-03-20T22:17:51.158Z,5.23
2019-03-20T22:21:18.401Z,4.30
2019-03-20T22:24:49.656Z,4.63
2019-03-20T22:28:21.057Z,4.47
2019-03-20T22:31:26.902Z,5.03
2019-03-20T22:35:12.335Z,4.37
2019-03-20T22:38:30.591Z,4.73
2019-03-20T22:41:58.931Z,5.40
2019-03-20T22:45:24.743Z,5.97
2019-03-20T22:49:08.751Z,4.83
2019-03-20T22:52:26.812Z,5.50
2019-03-20T22:55:38.718Z,5.97
2019-03-20T22:58:49.262Z,5.50
2019-03-20T23:02:09.764Z,5.70
2019-03-20T23:05:14.487Z,5.43
2019-03-20T23:08:19.221Z,5.27
2019-03-20T23:11:23.665Z,5.37
2019-03-20T23:14:28.368Z,5.83
2019-03-20T23:17:32.800Z,6.00
2019-03-20T23:20:37.302Z,5.70
2019-03-20T23:23:42.057Z,5.87
2019-03-20T23:26:46.794Z,5.80
2019-03-20T23:29:51.229Z,5.20
2019-03-20T23:32:55.672Z,5.37
2019-03-20T23:36:00.106Z,5.37
2019-03-20T23:39:06.920Z,5.83
2019-03-20T23:42:11.346Z,5.10
2019-03-20T23:45:19.286Z,6.10
2019-03-20T23:48:34.234Z,4.60
2019-03-20T23:51:38.666Z,4.97
2019-03-20T23:54:47.609Z,5.40
2019-03-20T23:57:52.032Z,5.67
